Time;durP1;ratioP1;P1;durP2;ratioP2;P2;SDS_P1;SDS_P2;PMS_P1;PMS_P2;Temp;Humidity;BMP_temperature;BMP_pressure;BME280_temperature;BME280_humidity;BME280_pressure;Samples;Min_cycle;Max_cycle;Signal;HPM_P1;HPM_P2
2022/12/16 00:02:34;;;;;;;0.47;0.47;;;;;;;-3.96;100.00;101159.59;10476352;28;20408;-81
2022/12/16 00:07:36;;;;;;;2.33;1.75;;;;;;;-3.86;100.00;101151.22;10478977;28;20055;-81
2022/12/16 00:12:38;;;;;;;1.17;1.10;;;;;;;-3.80;100.00;101158.44;10476760;28;20495;-81
2022/12/16 00:17:40;;;;;;;0.28;0.28;;;;;;;-3.69;100.00;101152.72;10476439;28;20426;-81
2022/12/16 00:22:42;;;;;;;0.82;0.82;;;;;;;-3.63;100.00;101153.25;10483730;28;20528;-81
2022/12/16 00:27:44;;;;;;;0.35;0.35;;;;;;;-3.57;100.00;101146.22;10457137;28;20076;-81
2022/12/16 00:32:46;;;;;;;1.20;1.15;;;;;;;-3.55;100.00;101139.69;10466993;28;20102;-81
2022/12/16 00:37:48;;;;;;;1.50;1.40;;;;;;;-3.42;100.00;101138.22;10465991;28;20488;-82
2022/12/16 00:42:52;;;;;;;0.15;0.15;;;;;;;-3.42;100.00;101138.22;10484182;28;20052;-82
2022/12/16 00:47:55;;;;;;;0.30;0.30;;;;;;;-3.46;100.00;101133.69;10477187;28;20518;-81
2022/12/16 00:52:57;;;;;;;0.93;0.93;;;;;;;-3.54;100.00;101138.91;10483281;28;20056;-82
2022/12/16 00:57:59;;;;;;;0.25;0.25;;;;;;;-3.57;100.00;101146.22;10479119;28;20117;-81
2022/12/16 01:03:00;;;;;;;1.02;0.95;;;;;;;-3.54;100.00;101154.03;10457399;28;20045;-82
2022/12/16 01:08:02;;;;;;;1.45;1.35;;;;;;;-3.59;100.00;101170.38;10473992;28;20436;-82
2022/12/16 01:13:04;;;;;;;11.90;3.92;;;;;;;-3.48;100.00;101176.34;10476656;28;20143;-82
2022/12/16 01:18:06;;;;;;;0.20;0.20;;;;;;;-3.49;100.00;101186.28;10461735;28;20044;-82
2022/12/16 01:23:07;;;;;;;0.32;0.32;;;;;;;-3.61;100.00;101204.59;10472027;28;20040;-82
2022/12/16 01:28:09;;;;;;;0.68;0.68;;;;;;;-3.58;100.00;101209.94;10482582;28;20052;-82
2022/12/16 01:33:11;;;;;;;0.68;0.40;;;;;;;-3.66;100.00;101218.44;10483048;28;20590;-81
2022/12/16 01:38:15;;;;;;;0.17;0.17;;;;;;;-3.53;100.00;101231.34;10468445;28;20044;-81
2022/12/16 01:43:20;;;;;;;0.52;0.50;;;;;;;-3.61;100.00;101244.91;10485084;28;20106;-82
2022/12/16 01:48:36;;;;;;;0.30;0.30;;;;;;;-3.51;100.00;101250.00;10466122;28;20226;-81
2022/12/16 01:53:42;;;;;;;0.60;0.60;;;;;;;-3.43;100.00;101257.38;10480156;28;20056;-82
2022/12/16 01:58:48;;;;;;;0.70;0.70;;;;;;;-3.51;100.00;101267.66;10466103;28;20566;-82
2022/12/16 02:03:53;;;;;;;3.72;2.03;;;;;;;-3.47;100.00;101273.84;10479868;28;20458;-82
2022/12/16 02:08:59;;;;;;;0.10;0.10;;;;;;;-3.45;100.00;101266.41;10480368;28;20476;-82
2022/12/16 02:14:30;;;;;;;0.65;0.63;;;;;;;-3.49;100.00;101265.25;10466940;28;20041;-82
2022/12/16 02:19:57;;;;;;;1.45;1.35;;;;;;;-3.54;100.00;101277.44;10452449;28;20053;-82
2022/12/16 02:25:32;;;;;;;1.52;1.17;;;;;;;-3.45;100.00;101273.97;10471992;28;20522;-82
2022/12/16 02:30:52;;;;;;;0.30;0.30;;;;;;;-3.51;100.00;101281.91;10494648;28;20040;-82
2022/12/16 02:36:06;;;;;;;1.23;1.13;;;;;;;-3.47;100.00;101278.00;10471044;28;20052;-82
2022/12/16 02:41:20;;;;;;;2.63;2.47;;;;;;;-3.43;100.00;101287.59;10455355;28;20060;-82
2022/12/16 02:46:25;;;;;;;1.70;1.60;;;;;;;-3.55;100.00;101285.78;10462331;28;20055;-82
2022/12/16 02:51:27;;;;;;;2.85;1.48;;;;;;;-3.44;100.00;101299.31;10469888;28;20423;-82
2022/12/16 02:56:33;;;;;;;1.65;1.45;;;;;;;-3.41;100.00;101298.69;10473017;28;20048;-82
2022/12/16 03:01:41;;;;;;;0.47;0.40;;;;;;;-3.40;100.00;101305.50;10461349;28;20078;-82
2022/12/16 03:06:48;;;;;;;0.30;0.30;;;;;;;-3.43;100.00;101315.31;10473662;28;20079;-81
2022/12/16 03:11:51;;;;;;;0.03;0.03;;;;;;;-3.36;100.00;101315.09;10462230;28;20040;-82
2022/12/16 03:16:54;;;;;;;0.63;0.63;;;;;;;-3.32;100.00;101312.13;10504517;28;20060;-82
2022/12/16 03:22:05;;;;;;;0.40;0.40;;;;;;;-3.34;100.00;101316.13;10470045;28;20116;-82
2022/12/16 03:27:38;;;;;;;0.25;0.25;;;;;;;-3.45;100.00;101322.75;10461827;28;20045;-82
2022/12/16 03:32:47;;;;;;;0.40;0.40;;;;;;;-3.47;100.00;101320.84;10435431;28;20052;-82
2022/12/16 03:37:54;;;;;;;3.72;1.30;;;;;;;-3.38;100.00;101324.16;10451836;28;20068;-82
2022/12/16 03:42:56;;;;;;;0.10;0.10;;;;;;;-3.38;100.00;101340.16;10458360;28;20488;-82
2022/12/16 03:47:59;;;;;;;0.73;0.73;;;;;;;-3.38;100.00;101339.25;10479931;28;20476;-82
2022/12/16 03:53:01;;;;;;;0.00;0.00;;;;;;;-3.37;100.00;101343.56;10477616;28;20048;-82
2022/12/16 03:58:03;;;;;;;1.35;1.15;;;;;;;-3.36;100.00;101347.84;10495245;28;20041;-82
2022/12/16 04:03:04;;;;;;;0.30;0.30;;;;;;;-3.29;100.00;101355.19;10475779;28;20496;-82
2022/12/16 04:08:06;;;;;;;1.02;0.98;;;;;;;-3.27;100.00;101356.22;10476767;28;20045;-82
2022/12/16 04:29:14;;;;;;;0.00;0.00;;;;;;;-3.01;100.00;101372.75;10475824;28;19925;-82
2022/12/16 04:34:24;;;;;;;0.80;0.80;;;;;;;-3.01;100.00;101372.75;10458836;28;20044;-82
